createdAt,value
2023-12-02T00:01:14.342Z,95283.34
2023-12-02T00:03:41.996Z,95278.94
2023-12-02T00:06:10.394Z,95265.63
2023-12-02T00:08:39.403Z,95268.50
2023-12-02T00:11:07.161Z,95272.31
2023-12-02T00:13:34.714Z,95263.75
2023-12-02T00:16:02.269Z,95267.50
2023-12-02T00:18:30.060Z,95267.66
2023-12-02T00:20:57.732Z,95263.44
2023-12-02T00:23:25.762Z,95264.22
2023-12-02T00:25:54.722Z,95258.84
2023-12-02T00:28:22.387Z,95250.38
2023-12-02T00:30:49.987Z,95250.84
2023-12-02T00:33:17.734Z,95258.78
2023-12-02T00:35:45.342Z,95264.06
2023-12-02T00:38:13.305Z,95262.09
2023-12-02T00:40:40.860Z,95259.97
2023-12-02T00:43:09.742Z,95261.22
2023-12-02T00:45:37.352Z,95263.28
2023-12-02T00:48:05.503Z,95267.38
2023-12-02T00:50:33.199Z,95277.63
2023-12-02T00:53:00.770Z,95286.66
2023-12-02T00:55:28.559Z,95283.47
2023-12-02T00:57:56.111Z,95289.09
2023-12-02T01:00:25.303Z,95296.41
2023-12-02T01:02:53.559Z,95297.03
2023-12-02T01:05:21.135Z,95293.44
2023-12-02T01:07:48.711Z,95289.81
2023-12-02T01:10:16.671Z,95289.94
2023-12-02T01:12:44.251Z,95282.34
2023-12-02T01:15:11.871Z,95295.69
2023-12-02T01:17:40.835Z,95287.00
2023-12-02T01:20:10.497Z,95295.44
2023-12-02T01:22:38.150Z,95307.16
2023-12-02T01:25:06.512Z,95299.31
2023-12-02T01:27:34.152Z,95303.94
2023-12-02T01:30:02.008Z,95301.28
2023-12-02T01:32:29.618Z,95295.72
2023-12-02T01:34:58.680Z,95299.09
2023-12-02T01:37:26.281Z,95295.19
2023-12-02T01:39:53.801Z,95297.78
2023-12-02T01:42:21.423Z,95312.84
2023-12-02T01:44:49.024Z,95328.06
2023-12-02T01:47:16.614Z,95325.84
2023-12-02T01:49:46.480Z,95327.22
2023-12-02T01:52:15.770Z,95319.66
2023-12-02T01:54:45.046Z,95320.28
2023-12-02T01:57:12.865Z,95327.59
2023-12-02T01:59:46.998Z,95326.25
2023-12-02T02:02:14.558Z,95323.75
2023-12-02T02:04:42.173Z,95324.81
2023-12-02T02:07:09.832Z,95324.47
2023-12-02T02:09:46.723Z,95328.09
2023-12-02T02:12:14.496Z,95322.22
2023-12-02T02:14:42.380Z,95332.50
2023-12-02T02:17:10.124Z,95331.19
2023-12-02T02:19:37.920Z,95331.28
2023-12-02T02:22:06.939Z,95325.69
2023-12-02T02:24:34.994Z,95328.25
2023-12-02T02:27:02.609Z,95324.72
2023-12-02T02:29:30.232Z,95327.38
2023-12-02T02:31:57.875Z,95325.06
2023-12-02T02:34:26.671Z,95324.72
2023-12-02T02:36:54.259Z,95325.66
2023-12-02T02:39:24.065Z,95330.31
2023-12-02T02:41:51.669Z,95329.44
2023-12-02T02:44:19.282Z,95330.03
2023-12-02T02:46:46.822Z,95342.50
2023-12-02T02:49:15.509Z,95344.72
2023-12-02T02:51:43.317Z,95348.47
2023-12-02T02:54:10.911Z,95344.34
2023-12-02T02:56:39.827Z,95337.19
2023-12-02T02:59:07.385Z,95327.34
2023-12-02T03:01:34.954Z,95324.22
2023-12-02T03:04:02.612Z,95329.94
2023-12-02T03:06:30.373Z,95338.78
2023-12-02T03:08:58.034Z,95350.22
2023-12-02T03:11:25.624Z,95361.16
2023-12-02T03:13:54.591Z,95373.56
2023-12-02T03:16:22.351Z,95386.56
2023-12-02T03:18:49.956Z,95381.53
2023-12-02T03:21:17.584Z,95375.72
2023-12-02T03:23:45.975Z,95381.88
2023-12-02T03:26:14.454Z,95375.47
2023-12-02T03:28:42.043Z,95382.81
2023-12-02T03:31:11.199Z,95384.13
2023-12-02T03:33:38.787Z,95391.16
2023-12-02T03:36:06.949Z,95375.75
2023-12-02T03:38:34.507Z,95380.22
2023-12-02T03:41:03.628Z,95381.81
2023-12-02T03:43:31.690Z,95378.44
2023-12-02T03:46:00.718Z,95379.47
2023-12-02T03:48:29.775Z,95391.59
2023-12-02T03:50:57.839Z,95391.50
2023-12-02T03:53:25.456Z,95397.28
2023-12-02T03:55:54.345Z,95398.38
2023-12-02T03:58:22.063Z,95410.44
2023-12-02T04:00:49.654Z,95416.47
2023-12-02T04:03:17.224Z,95427.72
2023-12-02T04:05:46.560Z,95433.53
2023-12-02T04:08:14.229Z,95438.03
2023-12-02T04:10:41.848Z,95448.97
2023-12-02T04:13:09.651Z,95458.34
2023-12-02T04:15:37.334Z,95455.81
2023-12-02T04:18:05.244Z,95458.91
2023-12-02T04:20:33.366Z,95461.03
2023-12-02T04:23:02.267Z,95458.31
2023-12-02T04:25:29.992Z,95460.72
2023-12-02T04:27:57.550Z,95458.09
2023-12-02T04:30:25.169Z,95457.03
2023-12-02T04:32:52.832Z,95461.50
2023-12-02T04:35:20.404Z,95466.84
2023-12-02T04:37:48.598Z,95466.13
2023-12-02T04:40:17.715Z,95470.34
2023-12-02T04:42:45.722Z,95456.09
2023-12-02T04:45:13.575Z,95464.34
2023-12-02T04:47:42.117Z,95462.22
2023-12-02T04:50:10.353Z,95456.06
2023-12-02T04:52:37.947Z,95465.66
2023-12-02T04:55:06.452Z,95470.56
2023-12-02T04:57:35.520Z,95472.69
2023-12-02T05:00:05.366Z,95471.41
2023-12-02T05:02:33.024Z,95477.66
2023-12-02T05:05:00.578Z,95485.13
2023-12-02T05:07:28.288Z,95492.44
2023-12-02T05:09:55.831Z,95489.13
2023-12-02T05:12:23.515Z,95493.69
2023-12-02T05:14:52.396Z,95491.13
2023-12-02T05:17:19.939Z,95506.25
2023-12-02T05:19:48.162Z,95501.09
2023-12-02T05:22:15.736Z,95504.13
2023-12-02T05:24:43.293Z,95504.63
2023-12-02T05:27:11.013Z,95497.88
2023-12-02T05:29:38.680Z,95504.41
2023-12-02T05:32:08.482Z,95504.22
2023-12-02T05:34:36.162Z,95502.09
2023-12-02T05:37:05.222Z,95504.97
2023-12-02T05:39:32.816Z,95502.72
2023-12-02T05:42:00.674Z,95508.41
2023-12-02T05:44:28.233Z,95505.28
2023-12-02T05:46:55.761Z,95504.53
2023-12-02T05:49:24.848Z,95522.00
2023-12-02T05:51:52.710Z,95519.94
2023-12-02T05:54:20.320Z,95529.88
2023-12-02T05:56:47.921Z,95525.13
2023-12-02T05:59:16.530Z,95543.94
2023-12-02T06:01:44.248Z,95551.19
2023-12-02T06:04:11.878Z,95565.28
2023-12-02T06:06:40.884Z,95574.66
2023-12-02T06:09:09.324Z,95574.16
2023-12-02T06:11:36.892Z,95573.88
2023-12-02T06:14:04.517Z,95576.97
2023-12-02T06:16:32.071Z,95584.56
2023-12-02T06:18:59.864Z,95575.97
2023-12-02T06:21:27.565Z,95582.66
2023-12-02T06:23:56.558Z,95585.59
2023-12-02T06:26:24.220Z,95589.28
2023-12-02T06:28:51.756Z,95592.41
2023-12-02T06:31:19.577Z,95600.44
2023-12-02T06:33:47.231Z,95603.09
2023-12-02T06:36:15.492Z,95604.91
2023-12-02T06:38:43.100Z,95611.44
2023-12-02T06:41:12.002Z,95616.41
2023-12-02T06:43:39.544Z,95622.44
2023-12-02T06:46:07.935Z,95620.84
2023-12-02T06:48:35.721Z,95630.50
2023-12-02T06:51:03.459Z,95629.94
2023-12-02T06:53:31.051Z,95639.09
2023-12-02T06:55:58.851Z,95638.59
2023-12-02T06:58:28.896Z,95644.03
2023-12-02T07:00:56.970Z,95642.50
2023-12-02T07:03:25.145Z,95641.41
2023-12-02T07:05:52.780Z,95643.00
2023-12-02T07:08:20.376Z,95648.72
2023-12-02T07:10:47.974Z,95654.69
2023-12-02T07:13:15.515Z,95656.03
2023-12-02T07:15:44.579Z,95655.75
2023-12-02T07:18:12.213Z,95660.22
2023-12-02T07:20:39.885Z,95663.88
2023-12-02T07:23:07.508Z,95670.88
2023-12-02T07:25:35.701Z,95666.47
2023-12-02T07:28:03.434Z,95680.00
2023-12-02T07:30:31.043Z,95681.03
2023-12-02T07:33:00.120Z,95684.16
2023-12-02T07:35:27.731Z,95685.16
2023-12-02T07:37:55.318Z,95699.25
2023-12-02T07:40:22.930Z,95702.44
2023-12-02T07:42:50.565Z,95701.66
2023-12-02T07:45:18.169Z,95711.31
2023-12-02T07:47:46.273Z,95713.38
2023-12-02T07:50:15.460Z,95725.88
2023-12-02T07:52:43.335Z,95726.38
2023-12-02T07:55:11.455Z,95733.97
2023-12-02T07:57:39.023Z,95737.34
2023-12-02T08:00:08.824Z,95745.44
2023-12-02T08:02:36.744Z,95758.22
2023-12-02T08:07:36.534Z,95765.53
2023-12-02T08:10:04.537Z,95771.78
2023-12-02T08:12:32.189Z,95770.72
2023-12-02T08:14:59.719Z,95771.50
2023-12-02T08:17:27.354Z,95772.78
2023-12-02T08:19:54.993Z,95768.63
2023-12-02T08:22:25.333Z,95771.25
2023-12-02T08:24:54.558Z,95772.63
2023-12-02T08:27:22.313Z,95783.78
2023-12-02T08:29:51.046Z,95788.66
2023-12-02T08:32:18.648Z,95788.34
2023-12-02T08:34:46.292Z,95795.88
2023-12-02T08:37:14.650Z,95801.75
2023-12-02T08:39:42.190Z,95799.16
2023-12-02T08:42:11.184Z,95805.34
2023-12-02T08:44:39.744Z,95815.50
2023-12-02T08:47:07.561Z,95813.88
2023-12-02T08:49:37.279Z,95816.00
2023-12-02T08:52:06.683Z,95820.56
2023-12-02T08:54:34.290Z,95827.72
2023-12-02T08:57:01.849Z,95831.69
2023-12-02T08:59:30.741Z,95835.63
2023-12-02T09:01:58.424Z,95837.19
2023-12-02T09:04:26.135Z,95838.56
2023-12-02T09:06:53.712Z,95833.56
2023-12-02T09:09:21.247Z,95845.09
2023-12-02T09:11:48.937Z,95841.47
2023-12-02T09:14:16.883Z,95844.34
2023-12-02T09:16:48.379Z,95856.59
2023-12-02T09:19:52.344Z,95858.72
2023-12-02T09:22:47.193Z,95868.41
2023-12-02T09:25:28.108Z,95859.47
2023-12-02T09:28:24.342Z,95873.06
2023-12-02T09:31:06.427Z,95875.16
2023-12-02T09:33:40.397Z,95879.38
2023-12-02T09:36:09.821Z,95878.06
2023-12-02T09:38:37.604Z,95889.53
2023-12-02T09:41:33.820Z,95897.59
2023-12-02T09:44:15.140Z,95895.25
2023-12-02T09:46:52.707Z,95898.41
2023-12-02T09:49:46.908Z,95918.25
2023-12-02T09:52:30.379Z,95924.50
2023-12-02T09:55:09.117Z,95924.03
2023-12-02T09:57:45.624Z,95928.44
2023-12-02T10:00:22.880Z,95926.91
2023-12-02T10:03:12.755Z,95930.78
2023-12-02T10:05:50.415Z,95935.75
2023-12-02T10:08:25.904Z,95936.03
2023-12-02T10:11:03.250Z,95948.56
2023-12-02T10:13:38.891Z,95950.66
2023-12-02T10:16:14.632Z,95953.28
2023-12-02T10:18:48.812Z,95954.31
2023-12-02T10:21:20.630Z,95950.06
2023-12-02T10:23:57.564Z,95952.16
2023-12-02T10:26:28.124Z,95957.69
2023-12-02T10:29:17.877Z,95963.97
2023-12-02T10:31:57.489Z,95957.69
2023-12-02T10:34:30.795Z,95966.03
2023-12-02T10:37:01.815Z,95971.19
2023-12-02T10:39:41.811Z,95971.47
2023-12-02T10:42:14.979Z,95976.16
2023-12-02T10:44:45.013Z,95973.34
2023-12-02T10:47:14.142Z,95979.13
2023-12-02T10:49:42.243Z,95976.25
2023-12-02T10:54:50.254Z,95989.94
2023-12-02T10:57:21.306Z,95984.78
2023-12-02T10:59:56.268Z,95987.44
2023-12-02T11:02:31.975Z,95982.66
2023-12-02T11:05:16.678Z,95994.88
2023-12-02T11:07:50.394Z,95992.91
2023-12-02T11:10:25.878Z,96003.44
2023-12-02T11:12:56.668Z,96003.19
2023-12-02T11:15:25.893Z,96010.97
2023-12-02T11:18:02.558Z,96010.63
2023-12-02T11:20:44.690Z,96012.31
2023-12-02T11:23:32.633Z,96007.91
2023-12-02T11:26:13.550Z,96015.78
2023-12-02T11:28:56.092Z,96020.09
2023-12-02T11:31:34.974Z,96019.28
2023-12-02T11:34:26.164Z,96015.63
2023-12-02T11:37:01.925Z,96024.72
2023-12-02T11:39:44.225Z,96026.97
2023-12-02T11:42:18.119Z,96039.78
2023-12-02T11:45:01.687Z,96045.22
2023-12-02T11:47:40.272Z,96042.16
2023-12-02T11:50:24.508Z,96049.56
2023-12-02T11:52:59.157Z,96048.13
2023-12-02T11:55:32.169Z,96056.78
2023-12-02T11:58:10.717Z,96053.44
2023-12-02T12:00:48.780Z,96067.03
2023-12-02T12:03:33.869Z,96060.81
2023-12-02T12:06:12.124Z,96075.28
2023-12-02T12:08:50.443Z,96078.09
2023-12-02T12:11:22.033Z,96090.56
2023-12-02T12:13:52.304Z,96089.84
2023-12-02T12:16:22.762Z,96095.63
2023-12-02T12:18:52.402Z,96102.56
2023-12-02T12:21:20.039Z,96105.72
2023-12-02T12:23:48.707Z,96100.81
2023-12-02T12:26:16.299Z,96109.47
2023-12-02T12:28:45.325Z,96114.41
2023-12-02T12:31:13.096Z,96122.28
2023-12-02T12:33:41.090Z,96125.69
2023-12-02T12:36:11.311Z,96127.03
2023-12-02T12:38:39.408Z,96133.78
2023-12-02T12:41:08.308Z,96134.03
2023-12-02T12:43:38.893Z,96142.97
2023-12-02T12:46:12.292Z,96142.69
2023-12-02T12:48:40.647Z,96143.75
2023-12-02T12:51:09.953Z,96153.94
2023-12-02T12:53:41.676Z,96165.19
2023-12-02T12:56:13.047Z,96163.06
2023-12-02T12:58:56.077Z,96173.28
2023-12-02T13:01:29.780Z,96188.66
2023-12-02T13:04:06.312Z,96186.34
2023-12-02T13:06:44.526Z,96190.00
2023-12-02T13:09:13.249Z,96185.53
2023-12-02T13:11:58.284Z,96196.50
2023-12-02T13:14:32.236Z,96194.09
2023-12-02T13:17:02.466Z,96201.94
2023-12-02T13:19:30.663Z,96208.75
2023-12-02T13:22:01.572Z,96214.03
2023-12-02T13:24:34.062Z,96222.00
2023-12-02T13:27:01.797Z,96228.09
2023-12-02T13:29:29.353Z,96227.81
2023-12-02T13:31:58.010Z,96230.44
2023-12-02T13:34:39.388Z,96230.13
2023-12-02T13:37:08.701Z,96240.09
2023-12-02T13:39:40.385Z,96236.78
2023-12-02T13:42:13.266Z,96251.56
2023-12-02T13:44:41.890Z,96260.53
2023-12-02T13:47:22.656Z,96259.09
2023-12-02T13:49:56.396Z,96264.72
2023-12-02T13:52:34.815Z,96273.19
2023-12-02T13:55:23.354Z,96269.88
2023-12-02T13:58:04.940Z,96283.22
2023-12-02T14:00:40.212Z,96296.38
2023-12-02T14:03:20.700Z,96297.94
2023-12-02T14:05:55.809Z,96305.06
2023-12-02T14:08:24.112Z,96310.06
2023-12-02T14:10:54.412Z,96329.00
2023-12-02T14:13:41.878Z,96323.53
2023-12-02T14:16:21.908Z,96327.06
2023-12-02T14:19:16.084Z,96334.34
2023-12-02T14:22:09.090Z,96336.50
2023-12-02T14:25:05.747Z,96347.13
2023-12-02T14:27:49.369Z,96346.53
2023-12-02T14:30:40.485Z,96363.75
2023-12-02T14:33:53.796Z,96371.75
2023-12-02T14:36:36.457Z,96381.53
2023-12-02T14:39:40.061Z,96392.53
2023-12-02T14:42:13.908Z,96397.22
2023-12-02T14:44:44.114Z,96401.38
2023-12-02T14:47:13.545Z,96411.28
2023-12-02T14:49:44.317Z,96412.72
2023-12-02T14:52:12.419Z,96423.63
2023-12-02T14:54:46.654Z,96426.28
2023-12-02T14:57:16.546Z,96429.16
2023-12-02T14:59:45.329Z,96434.81
2023-12-02T15:02:37.468Z,96440.47
2023-12-02T15:05:06.482Z,96444.59
2023-12-02T15:07:35.157Z,96450.38
2023-12-02T15:10:04.402Z,96456.34
2023-12-02T15:12:37.052Z,96460.44
2023-12-02T15:15:06.725Z,96468.94
2023-12-02T15:17:36.553Z,96467.44
2023-12-02T15:20:12.092Z,96466.38
2023-12-02T15:22:41.285Z,96480.78
2023-12-02T15:25:11.615Z,96487.38
2023-12-02T15:27:39.214Z,96490.84
2023-12-02T15:30:13.744Z,96497.72
2023-12-02T15:32:41.434Z,96498.63
2023-12-02T15:35:09.205Z,96508.81
2023-12-02T15:37:36.968Z,96508.25
2023-12-02T15:40:05.057Z,96510.81
2023-12-02T15:42:34.043Z,96513.91
2023-12-02T15:45:01.666Z,96522.16
2023-12-02T15:47:29.285Z,96540.56
2023-12-02T15:49:57.463Z,96547.59
2023-12-02T15:52:25.201Z,96542.97
2023-12-02T15:54:52.848Z,96554.00
2023-12-02T15:57:20.469Z,96553.69
2023-12-02T15:59:49.905Z,96565.09
2023-12-02T16:02:17.570Z,96574.00
2023-12-02T16:04:47.666Z,96579.47
2023-12-02T16:07:15.705Z,96581.38
2023-12-02T16:09:47.112Z,96592.00
2023-12-02T16:12:17.762Z,96592.59
2023-12-02T16:14:46.627Z,96597.44
2023-12-02T16:17:17.310Z,96598.84
2023-12-02T16:19:45.032Z,96598.19
2023-12-02T16:22:16.083Z,96612.88
2023-12-02T16:24:43.825Z,96614.94
2023-12-02T16:27:11.382Z,96618.97
2023-12-02T16:29:48.984Z,96623.03
2023-12-02T16:32:18.794Z,96630.44
2023-12-02T16:34:46.769Z,96634.06
2023-12-02T16:37:15.649Z,96638.31
2023-12-02T16:39:43.561Z,96645.53
2023-12-02T16:42:11.192Z,96661.00
2023-12-02T16:44:38.881Z,96663.06
2023-12-02T16:47:08.423Z,96668.03
2023-12-02T16:49:37.462Z,96672.28
2023-12-02T16:52:06.244Z,96675.00
2023-12-02T16:54:34.206Z,96673.03
2023-12-02T16:57:02.097Z,96680.69
2023-12-02T16:59:49.409Z,96689.72
2023-12-02T17:02:41.249Z,96700.81
2023-12-02T17:06:04.708Z,96699.41
2023-12-02T17:08:34.726Z,96699.56
2023-12-02T17:11:04.130Z,96713.94
2023-12-02T17:13:46.002Z,96712.59
2023-12-02T17:16:55.274Z,96722.28
2023-12-02T17:19:26.949Z,96722.00
2023-12-02T17:21:59.259Z,96729.97
2023-12-02T17:24:31.210Z,96734.59
2023-12-02T17:26:59.005Z,96735.50
2023-12-02T17:29:28.178Z,96746.00
2023-12-02T17:31:57.219Z,96748.31
2023-12-02T17:34:25.233Z,96753.22
2023-12-02T17:36:54.406Z,96757.09
2023-12-02T17:39:24.124Z,96760.00
2023-12-02T17:41:52.206Z,96756.78
2023-12-02T17:44:20.974Z,96763.47
2023-12-02T17:46:50.242Z,96764.25
2023-12-02T17:49:18.410Z,96768.41
2023-12-02T17:51:46.022Z,96773.78
2023-12-02T17:54:13.825Z,96768.25
2023-12-02T17:56:42.782Z,96779.72
2023-12-02T17:59:12.230Z,96773.19
2023-12-02T18:01:39.826Z,96781.66
2023-12-02T18:04:07.483Z,96787.13
2023-12-02T18:06:35.870Z,96789.72
2023-12-02T18:09:03.625Z,96786.78
2023-12-02T18:11:31.220Z,96791.38
2023-12-02T18:14:00.193Z,96800.09
2023-12-02T18:16:28.039Z,96802.22
2023-12-02T18:18:57.528Z,96807.88
2023-12-02T18:21:25.342Z,96811.63
2023-12-02T18:23:58.136Z,96820.50
2023-12-02T18:26:25.694Z,96825.16
2023-12-02T18:28:53.294Z,96828.09
2023-12-02T18:31:22.399Z,96836.09
2023-12-02T18:33:50.027Z,96840.03
2023-12-02T18:36:17.827Z,96851.50
2023-12-02T18:38:45.465Z,96851.75
2023-12-02T18:41:13.393Z,96858.69
2023-12-02T18:43:41.757Z,96863.34
2023-12-02T18:46:10.570Z,96867.69
2023-12-02T18:48:39.501Z,96873.78
2023-12-02T18:51:07.651Z,96882.63
2023-12-02T18:53:35.239Z,96882.00
2023-12-02T18:56:02.764Z,96888.22
2023-12-02T18:58:32.183Z,96891.19
2023-12-02T19:00:59.922Z,96896.53
2023-12-02T19:03:27.543Z,96890.22
2023-12-02T19:05:56.514Z,96892.97
2023-12-02T19:08:24.054Z,96897.16
2023-12-02T19:10:51.574Z,96899.53
2023-12-02T19:13:19.115Z,96905.41
2023-12-02T19:15:46.715Z,96912.47
2023-12-02T19:18:14.433Z,96913.59
2023-12-02T19:20:42.097Z,96915.44
2023-12-02T19:23:11.026Z,96921.88
2023-12-02T19:25:38.785Z,96932.72
2023-12-02T19:28:06.461Z,96939.13
2023-12-02T19:30:34.220Z,96935.59
2023-12-02T19:33:02.650Z,96946.28
2023-12-02T19:35:30.330Z,96947.91
2023-12-02T19:38:00.079Z,96945.69
2023-12-02T19:40:29.473Z,96942.84
2023-12-02T19:42:58.919Z,96950.22
2023-12-02T19:45:26.872Z,96956.84
2023-12-02T19:47:54.537Z,96960.91
2023-12-02T19:50:22.868Z,96966.88
2023-12-02T19:52:50.685Z,96968.13
2023-12-02T19:55:18.728Z,96968.75
2023-12-02T19:57:47.645Z,96980.34
2023-12-02T20:00:16.167Z,96977.59
2023-12-02T20:02:43.739Z,96992.47
2023-12-02T20:05:12.870Z,96991.47
2023-12-02T20:07:40.503Z,96995.34
2023-12-02T20:10:09.263Z,96987.53
2023-12-02T20:12:36.809Z,97002.94
2023-12-02T20:15:07.113Z,96997.22
2023-12-02T20:17:34.720Z,97004.53
2023-12-02T20:20:02.391Z,97011.41
2023-12-02T20:22:29.923Z,97011.22
2023-12-02T20:24:57.481Z,97019.63
2023-12-02T20:27:25.063Z,97021.25
2023-12-02T20:29:52.667Z,97026.75
2023-12-02T20:32:21.614Z,97029.19
2023-12-02T20:34:49.246Z,97030.91
2023-12-02T20:37:17.738Z,97030.66
2023-12-02T20:39:45.389Z,97033.56
2023-12-02T20:42:13.128Z,97038.22
2023-12-02T20:44:40.806Z,97042.84
2023-12-02T20:47:08.522Z,97043.34
2023-12-02T20:49:37.605Z,97045.84
2023-12-02T20:52:05.668Z,97051.44
2023-12-02T20:54:33.479Z,97046.44
2023-12-02T20:57:01.112Z,97049.31
2023-12-02T20:59:28.694Z,97063.72
2023-12-02T21:01:56.285Z,97067.03
2023-12-02T21:04:23.947Z,97074.91
2023-12-02T21:06:52.870Z,97075.78
2023-12-02T21:09:20.522Z,97067.28
2023-12-02T21:11:48.231Z,97068.53
2023-12-02T21:14:15.801Z,97069.78
2023-12-02T21:16:43.404Z,97070.88
2023-12-02T21:19:12.238Z,97069.31
2023-12-02T21:21:39.951Z,97073.19
2023-12-02T21:24:09.268Z,97076.84
2023-12-02T21:26:36.825Z,97071.28
2023-12-02T21:29:04.679Z,97066.06
2023-12-02T21:31:36.083Z,97076.75
2023-12-02T21:34:03.743Z,97079.34
2023-12-02T21:36:31.547Z,97085.69
2023-12-02T21:38:59.271Z,97083.88
2023-12-02T21:41:28.435Z,97084.44
2023-12-02T21:43:58.203Z,97090.44
2023-12-02T21:46:28.356Z,97099.06
2023-12-02T21:49:00.132Z,97092.16
2023-12-02T21:51:31.016Z,97097.91
2023-12-02T21:53:59.949Z,97092.63
2023-12-02T21:56:38.311Z,97099.88
2023-12-02T21:59:10.109Z,97107.00
2023-12-02T22:01:38.687Z,97104.28
2023-12-02T22:04:09.331Z,97112.91
2023-12-02T22:06:44.228Z,97106.50
2023-12-02T22:09:24.609Z,97103.00
2023-12-02T22:11:53.858Z,97113.91
2023-12-02T22:14:22.447Z,97120.81
2023-12-02T22:16:51.565Z,97123.31
2023-12-02T22:19:19.568Z,97138.94
2023-12-02T22:21:47.283Z,97136.00
2023-12-02T22:24:15.174Z,97144.13
2023-12-02T22:26:42.865Z,97139.63
2023-12-02T22:29:15.882Z,97153.66
2023-12-02T22:31:43.428Z,97152.66
2023-12-02T22:34:12.337Z,97151.94
2023-12-02T22:36:42.427Z,97158.75
2023-12-02T22:39:19.163Z,97171.91
2023-12-02T22:41:46.812Z,97167.47
2023-12-02T22:44:16.314Z,97172.00
2023-12-02T22:46:49.663Z,97171.22
2023-12-02T22:49:24.222Z,97170.75
2023-12-02T22:51:52.395Z,97174.81
2023-12-02T22:54:36.292Z,97175.19
2023-12-02T22:57:04.662Z,97179.78
2023-12-02T22:59:33.578Z,97172.53
2023-12-02T23:02:01.268Z,97178.41
2023-12-02T23:04:37.017Z,97182.94
2023-12-02T23:07:44.794Z,97182.72
2023-12-02T23:10:28.307Z,97179.09
2023-12-02T23:12:58.493Z,97177.56
2023-12-02T23:15:37.863Z,97177.75
2023-12-02T23:18:07.355Z,97179.84
2023-12-02T23:20:36.257Z,97184.06
2023-12-02T23:23:03.938Z,97182.97
2023-12-02T23:25:31.633Z,97183.38
2023-12-02T23:28:01.637Z,97189.44
2023-12-02T23:30:29.281Z,97193.16
2023-12-02T23:32:58.563Z,97191.63
2023-12-02T23:35:29.119Z,97193.97
2023-12-02T23:37:56.861Z,97194.59
2023-12-02T23:40:26.520Z,97194.59
2023-12-02T23:42:55.463Z,97201.84
2023-12-02T23:45:23.123Z,97203.59
2023-12-02T23:47:51.636Z,97207.78
2023-12-02T23:50:22.094Z,97210.91
2023-12-02T23:52:50.790Z,97209.13
2023-12-02T23:55:18.539Z,97214.50
2023-12-02T23:57:48.824Z,97215.31
